Time,TemperatureF,DewpointF,PressureIn,WindDirection,WindDirectionDegrees,WindSpeedMPH,WindSpeedGustMPH,Humidity,HourlyPrecipIn,Conditions,Clouds,dailyrainin,SoftwareType,DateUTC
2013-07-16 00:02:00,72.1,71.5,30.05,NNE,22,0.0,-999.0,98,-99.99,,,0.00,Acu-Link.com,2013-07-16 04:02:00,
2013-07-16 00:17:00,72.1,71.5,30.05,SSE,157,0.0,-999.0,98,-99.99,,,0.00,Acu-Link.com,2013-07-16 04:17:00,
2013-07-16 00:32:00,71.8,71.2,30.07,South,180,0.0,-999.0,98,-99.99,,,0.00,Acu-Link.com,2013-07-16 04:32:00,
2013-07-16 00:48:00,71.6,71.0,30.09,SSW,202,0.0,-999.0,98,-99.99,,,0.00,Acu-Link.com,2013-07-16 04:48:00,
2013-07-16 01:03:00,71.4,70.8,30.08,NNE,22,0.0,-999.0,98,-99.99,,,0.00,Acu-Link.com,2013-07-16 05:03:00,
2013-07-16 01:18:00,71.2,70.6,30.08,ENE,67,0.0,-999.0,98,-99.99,,,0.00,Acu-Link.com,2013-07-16 05:18:00,
2013-07-16 01:33:00,70.9,70.3,30.08,South,180,0.0,-999.0,98,-99.99,,,0.00,Acu-Link.com,2013-07-16 05:33:00,
2013-07-16 01:49:00,70.5,69.9,30.08,NE,45,0.0,-999.0,98,-99.99,,,0.00,Acu-Link.com,2013-07-16 05:49:00,
2013-07-16 02:04:00,70.5,69.9,30.06,SSE,157,1.7,-999.0,98,-99.99,,,0.00,Acu-Link.com,2013-07-16 06:04:00,
2013-07-16 02:19:00,70.3,69.7,30.07,SSW,202,1.7,-999.0,98,-99.99,,,0.00,Acu-Link.com,2013-07-16 06:19:00,
2013-07-16 02:34:00,70.2,69.6,30.07,North,0,0.0,-999.0,98,-99.99,,,0.00,Acu-Link.com,2013-07-16 06:34:00,
2013-07-16 02:49:00,70.0,69.4,30.07,North,0,0.0,-999.0,98,-99.99,,,0.00,Acu-Link.com,2013-07-16 06:49:00,
2013-07-16 03:05:00,69.8,69.2,30.06,SSE,157,0.0,-999.0,98,-99.99,,,0.00,Acu-Link.com,2013-07-16 07:05:00,
2013-07-16 03:20:00,70.0,69.4,30.07,North,0,0.0,-999.0,98,-99.99,,,0.00,Acu-Link.com,2013-07-16 07:20:00,
2013-07-16 03:35:00,69.8,69.2,30.07,North,0,0.0,-999.0,98,-99.99,,,0.00,Acu-Link.com,2013-07-16 07:35:00,
2013-07-16 03:51:00,69.6,69.0,30.07,SSE,157,0.0,-999.0,98,-99.99,,,0.00,Acu-Link.com,2013-07-16 07:51:00,
2013-07-16 04:07:00,69.4,68.8,30.07,North,0,0.0,-999.0,98,-99.99,,,0.00,Acu-Link.com,2013-07-16 08:07:00,
2013-07-16 04:22:00,69.3,68.7,30.07,SSE,157,0.0,-999.0,98,-99.99,,,0.00,Acu-Link.com,2013-07-16 08:22:00,
2013-07-16 04:37:00,69.1,68.5,30.06,SSE,157,0.0,-999.0,98,-99.99,,,0.00,Acu-Link.com,2013-07-16 08:37:00,
2013-07-16 05:08:00,69.1,68.5,30.07,SE,135,0.0,-999.0,98,-99.99,,,0.00,Acu-Link.com,2013-07-16 09:08:00,
2013-07-16 05:23:00,68.7,68.1,30.08,SSE,157,0.0,-999.0,98,-99.99,,,0.00,Acu-Link.com,2013-07-16 09:23:00,
2013-07-16 05:38:00,68.4,67.8,30.07,WSW,247,0.0,-999.0,98,-99.99,,,0.00,Acu-Link.com,2013-07-16 09:38:00,
2013-07-16 06:10:00,68.2,67.6,30.08,WSW,247,0.0,-999.0,98,-99.99,,,0.00,Acu-Link.com,2013-07-16 10:10:00,
2013-07-16 06:25:00,67.8,67.2,30.08,WSW,247,0.0,-999.0,98,-99.99,,,0.00,Acu-Link.com,2013-07-16 10:25:00,
2013-07-16 06:41:00,67.6,67.0,30.08,NNW,337,0.0,-999.0,98,-99.99,,,0.00,Acu-Link.com,2013-07-16 10:41:00,
2013-07-16 06:56:00,67.6,67.0,30.08,NNW,337,0.0,-999.0,98,-99.99,,,0.00,Acu-Link.com,2013-07-16 10:56:00,
2013-07-16 07:11:00,67.8,67.2,30.09,South,180,0.0,-999.0,98,-99.99,,,0.00,Acu-Link.com,2013-07-16 11:11:00,
2013-07-16 07:26:00,68.0,67.4,30.10,South,180,0.0,-999.0,98,-99.99,,,0.00,Acu-Link.com,2013-07-16 11:26:00,
2013-07-16 07:42:00,69.1,68.5,30.10,South,180,0.0,-999.0,98,-99.99,,,0.00,Acu-Link.com,2013-07-16 11:42:00,
2013-07-16 07:57:00,70.2,69.6,30.10,NE,45,0.0,-999.0,98,-99.99,,,0.00,Acu-Link.com,2013-07-16 11:57:00,
2013-07-16 08:12:00,71.6,71.0,30.09,WNW,292,0.0,-999.0,98,-99.99,,,0.00,Acu-Link.com,2013-07-16 12:12:00,
2013-07-16 08:27:00,73.2,72.6,30.10,NNW,337,1.7,-999.0,98,-99.99,,,0.00,Acu-Link.com,2013-07-16 12:27:00,
2013-07-16 08:43:00,74.5,73.9,30.11,SE,135,1.1,-999.0,98,-99.99,,,0.00,Acu-Link.com,2013-07-16 12:43:00,
2013-07-16 08:58:00,75.0,74.4,30.10,NNW,337,1.7,-999.0,98,-99.99,,,0.00,Acu-Link.com,2013-07-16 12:58:00,
2013-07-16 09:13:00,76.3,75.7,30.12,NNE,22,2.7,-999.0,98,-99.99,,,0.00,Acu-Link.com,2013-07-16 13:13:00,
2013-07-16 09:28:00,77.4,76.8,30.11,ENE,67,0.0,-999.0,98,-99.99,,,0.00,Acu-Link.com,2013-07-16 13:28:00,
2013-07-16 09:44:00,78.6,78.0,30.11,East,90,0.0,-999.0,98,-99.99,,,0.00,Acu-Link.com,2013-07-16 13:44:00,
2013-07-16 09:59:00,79.5,78.9,30.11,SE,135,1.7,-999.0,98,-99.99,,,0.00,Acu-Link.com,2013-07-16 13:59:00,
2013-07-16 10:14:00,80.4,79.8,30.11,ESE,112,1.1,-999.0,98,-99.99,,,0.00,Acu-Link.com,2013-07-16 14:14:00,
2013-07-16 10:30:00,81.1,80.5,30.10,NNE,22,2.2,-999.0,98,-99.99,,,0.00,Acu-Link.com,2013-07-16 14:30:00,
2013-07-16 10:45:00,82.2,81.6,30.11,SE,135,2.2,-999.0,98,-99.99,,,0.00,Acu-Link.com,2013-07-16 14:45:00,
2013-07-16 11:00:00,83.1,82.5,30.10,ESE,112,1.7,-999.0,98,-99.99,,,0.00,Acu-Link.com,2013-07-16 15:00:00,
2013-07-16 11:15:00,83.8,83.2,30.10,NNE,22,1.1,-999.0,98,-99.99,,,0.00,Acu-Link.com,2013-07-16 15:15:00,
2013-07-16 11:30:00,84.9,84.3,30.09,ESE,112,1.7,-999.0,98,-99.99,,,0.00,Acu-Link.com,2013-07-16 15:30:00,
2013-07-16 11:46:00,86.0,85.4,30.09,East,90,2.2,-999.0,98,-99.99,,,0.00,Acu-Link.com,2013-07-16 15:46:00,
2013-07-16 12:01:00,86.5,85.9,30.09,NNE,22,4.7,-999.0,98,-99.99,,,0.00,Acu-Link.com,2013-07-16 16:01:00,
2013-07-16 12:16:00,86.9,86.3,30.08,NNE,22,7.3,-999.0,98,-99.99,,,0.00,Acu-Link.com,2013-07-16 16:16:00,
2013-07-16 12:32:00,86.5,85.9,30.07,East,90,1.7,-999.0,98,-99.99,,,0.00,Acu-Link.com,2013-07-16 16:32:00,
2013-07-16 12:47:00,87.1,86.5,30.08,NE,45,1.1,-999.0,98,-99.99,,,0.00,Acu-Link.com,2013-07-16 16:47:00,
2013-07-16 13:03:00,87.4,86.8,30.07,NNE,22,3.2,-999.0,98,-99.99,,,0.00,Acu-Link.com,2013-07-16 17:03:00,
2013-07-16 13:18:00,88.3,87.7,30.06,SE,135,1.7,-999.0,98,-99.99,,,0.00,Acu-Link.com,2013-07-16 17:18:00,
2013-07-16 13:33:00,90.9,87.5,30.05,NNE,22,2.2,-999.0,90,-99.99,,,0.00,Acu-Link.com,2013-07-16 17:33:00,
2013-07-16 13:48:00,95.2,78.6,30.05,NNW,337,4.7,-999.0,59,-99.99,,,0.00,Acu-Link.com,2013-07-16 17:48:00,
2013-07-16 14:04:00,94.1,77.5,30.04,NNE,22,1.7,-999.0,59,-99.99,,,0.00,Acu-Link.com,2013-07-16 18:04:00,
2013-07-16 14:19:00,96.1,74.4,30.04,NNE,22,7.8,-999.0,50,-99.99,,,0.00,Acu-Link.com,2013-07-16 18:19:00,
2013-07-16 14:34:00,95.7,75.8,30.03,NW,315,3.2,-999.0,53,-99.99,,,0.00,Acu-Link.com,2013-07-16 18:34:00,
2013-07-16 14:49:00,94.6,75.3,30.04,North,0,3.2,-999.0,54,-99.99,,,0.00,Acu-Link.com,2013-07-16 18:49:00,
2013-07-16 15:04:00,96.1,74.4,30.03,NNW,337,3.2,-999.0,50,-99.99,,,0.00,Acu-Link.com,2013-07-16 19:04:00,
2013-07-16 15:20:00,97.0,73.4,30.02,NNW,337,4.2,-999.0,47,-99.99,,,0.00,Acu-Link.com,2013-07-16 19:20:00,
2013-07-16 15:35:00,96.6,74.3,30.01,NNW,337,2.7,-999.0,49,-99.99,,,0.00,Acu-Link.com,2013-07-16 19:35:00,
2013-07-16 15:50:00,92.5,75.0,30.02,NNE,22,1.7,-999.0,57,-99.99,,,0.00,Acu-Link.com,2013-07-16 19:50:00,
2013-07-16 16:05:00,97.3,73.6,30.02,ESE,112,4.2,-999.0,47,-99.99,,,0.00,Acu-Link.com,2013-07-16 20:05:00,
2013-07-16 16:20:00,97.9,73.5,30.00,East,90,1.1,-999.0,46,-99.99,,,0.00,Acu-Link.com,2013-07-16 20:20:00,
2013-07-16 16:36:00,97.5,71.9,30.03,West,270,1.1,-999.0,44,-99.99,,,0.00,Acu-Link.com,2013-07-16 20:36:00,
2013-07-16 16:51:00,96.6,73.0,30.02,NE,45,1.7,-999.0,47,-99.99,,,0.00,Acu-Link.com,2013-07-16 20:51:00,
2013-07-16 17:06:00,96.4,71.5,30.03,East,90,1.1,-999.0,45,-99.99,,,0.00,Acu-Link.com,2013-07-16 21:06:00,
2013-07-16 17:22:00,93.9,72.4,30.02,NNW,337,3.2,-999.0,50,-99.99,,,0.00,Acu-Link.com,2013-07-16 21:22:00,
2013-07-16 17:37:00,92.5,74.5,30.03,NNE,22,4.2,-999.0,56,-99.99,,,0.00,Acu-Link.com,2013-07-16 21:37:00,
2013-07-16 17:53:00,91.2,74.8,30.04,NNE,22,1.1,-999.0,59,-99.99,,,0.00,Acu-Link.com,2013-07-16 21:53:00,
2013-07-16 18:08:00,90.7,74.9,30.02,NNE,22,2.7,-999.0,60,-99.99,,,0.00,Acu-Link.com,2013-07-16 22:08:00,
2013-07-16 18:23:00,90.1,74.8,30.03,ESE,112,2.2,-999.0,61,-99.99,,,0.00,Acu-Link.com,2013-07-16 22:23:00,
2013-07-16 18:39:00,90.3,75.0,30.03,NNE,22,2.7,-999.0,61,-99.99,,,0.00,Acu-Link.com,2013-07-16 22:39:00,
2013-07-16 18:54:00,89.8,77.8,30.04,North,0,1.7,-999.0,68,-99.99,,,0.00,Acu-Link.com,2013-07-16 22:54:00,
2013-07-16 19:09:00,89.2,78.5,30.03,North,0,3.2,-999.0,71,-99.99,,,0.00,Acu-Link.com,2013-07-16 23:09:00,
2013-07-16 19:24:00,89.1,79.7,30.03,SW,225,0.0,-999.0,74,-99.99,,,0.00,Acu-Link.com,2013-07-16 23:24:00,
2013-07-16 19:40:00,87.6,86.6,30.03,ESE,112,0.0,-999.0,97,-99.99,,,0.00,Acu-Link.com,2013-07-16 23:40:00,
2013-07-16 19:55:00,87.3,86.7,30.03,NNE,22,0.0,-999.0,98,-99.99,,,0.00,Acu-Link.com,2013-07-16 23:55:00,
2013-07-16 20:10:00,86.2,85.6,30.03,NNE,22,0.0,-999.0,98,-99.99,,,0.00,Acu-Link.com,2013-07-17 00:10:00,
2013-07-16 20:25:00,84.6,84.0,30.02,NNE,22,0.0,-999.0,98,-99.99,,,0.00,Acu-Link.com,2013-07-17 00:25:00,
2013-07-16 20:41:00,83.1,82.5,30.04,SSE,157,0.0,-999.0,98,-99.99,,,0.00,Acu-Link.com,2013-07-17 00:41:00,
2013-07-16 20:56:00,82.0,81.4,30.04,SSW,202,0.0,-999.0,98,-99.99,,,0.00,Acu-Link.com,2013-07-17 00:56:00,
2013-07-16 21:11:00,81.0,80.4,30.04,SSW,202,0.0,-999.0,98,-99.99,,,0.00,Acu-Link.com,2013-07-17 01:11:00,
2013-07-16 21:26:00,79.3,78.7,30.05,South,180,0.0,-999.0,98,-99.99,,,0.00,Acu-Link.com,2013-07-17 01:26:00,
2013-07-16 21:42:00,78.3,77.7,30.05,SSE,157,0.0,-999.0,98,-99.99,,,0.00,Acu-Link.com,2013-07-17 01:42:00,
2013-07-16 21:57:00,77.0,76.4,30.06,SSE,157,0.0,-999.0,98,-99.99,,,0.00,Acu-Link.com,2013-07-17 01:57:00,
2013-07-16 22:12:00,76.3,75.7,30.06,SSE,157,0.0,-999.0,98,-99.99,,,0.00,Acu-Link.com,2013-07-17 02:12:00,
2013-07-16 22:28:00,75.7,75.1,30.05,SSE,157,0.0,-999.0,98,-99.99,,,0.00,Acu-Link.com,2013-07-17 02:28:00,
2013-07-16 22:43:00,75.2,74.6,30.05,NE,45,0.0,-999.0,98,-99.99,,,0.00,Acu-Link.com,2013-07-17 02:43:00,
2013-07-16 22:58:00,74.7,74.1,30.05,NE,45,0.0,-999.0,98,-99.99,,,0.00,Acu-Link.com,2013-07-17 02:58:00,
2013-07-16 23:13:00,73.9,73.3,30.05,SSE,157,0.0,-999.0,98,-99.99,,,0.00,Acu-Link.com,2013-07-17 03:13:00,
2013-07-16 23:28:00,73.8,73.2,30.06,NW,315,0.0,-999.0,98,-99.99,,,0.00,Acu-Link.com,2013-07-17 03:28:00,
2013-07-16 23:44:00,73.2,72.6,30.06,South,180,0.0,-999.0,98,-99.99,,,0.00,Acu-Link.com,2013-07-17 03:44:00,
2013-07-16 23:59:00,72.9,72.3,30.07,SSW,202,0.0,-999.0,98,-99.99,,,0.00,Acu-Link.com,2013-07-17 03:59:00,